Terminal Aerodrome Forecast
Issued by NWS Mt. Holly, NJ

Home | Current Version | Previous Version | Text Only | Print | Product List | Glossary On
Versions: 1 2 3 4 5 6 7 8 9 10 11 12 13 14 15 16
000
FTUS41 KPHI 181700
TAFABE
TAF
KABE 181739Z 1818/1918 VRB02KT P6SM SCT040
     FM182200 31004KT P6SM SCT060
     FM190300 01004KT P6SM SCT080
     FM190600 03005KT P6SM FEW090
     FM191300 06007KT P6SM SCT060=

USA.gov is the U.S. government's official web portal to all federal, state and local government web resources and services.